createdAt,value
2023-03-18T00:00:16.571Z,9.57
2023-03-18T00:02:43.882Z,9.93
2023-03-18T00:05:11.688Z,9.48
2023-03-18T00:07:38.710Z,13.73
2023-03-18T00:10:07.230Z,11.68
2023-03-18T00:12:34.521Z,6.95
2023-03-18T00:15:02.514Z,7.78
2023-03-18T00:17:29.192Z,10.13
2023-03-18T00:19:55.928Z,9.32
2023-03-18T00:22:22.910Z,8.15
2023-03-18T00:24:49.593Z,8.50
2023-03-18T00:27:16.724Z,10.18
2023-03-18T00:29:43.943Z,9.00
2023-03-18T00:32:11.178Z,14.45
2023-03-18T00:34:37.899Z,8.60
2023-03-18T00:37:05.171Z,9.13
2023-03-18T00:39:33.199Z,8.02
2023-03-18T00:42:08.171Z,8.98
2023-03-18T00:44:34.885Z,9.48
2023-03-18T00:47:01.767Z,13.25
2023-03-18T00:49:28.474Z,10.32
2023-03-18T00:51:55.188Z,8.70
2023-03-18T00:54:22.588Z,14.32
2023-03-18T00:56:49.799Z,12.02
2023-03-18T00:59:16.826Z,9.23
2023-03-18T01:01:43.535Z,9.43
2023-03-18T01:04:10.378Z,9.68
2023-03-18T01:06:38.563Z,13.25
2023-03-18T01:09:08.889Z,15.18
2023-03-18T01:11:35.579Z,9.98
2023-03-18T01:14:03.681Z,8.27
2023-03-18T01:16:30.582Z,9.27
2023-03-18T01:18:57.574Z,9.45
2023-03-18T01:21:24.287Z,10.52
2023-03-18T01:23:51.345Z,8.35
2023-03-18T01:26:18.054Z,9.90
2023-03-18T01:28:44.925Z,10.38
2023-03-18T01:31:12.929Z,9.70
2023-03-18T01:33:40.439Z,11.52
2023-03-18T01:36:08.262Z,11.77
2023-03-18T01:38:35.256Z,9.75
2023-03-18T01:41:02.312Z,9.00
2023-03-18T01:43:34.543Z,15.18
2023-03-18T01:46:02.893Z,9.90
2023-03-18T01:48:33.314Z,9.43
2023-03-18T01:51:04.292Z,9.90
2023-03-18T01:53:36.707Z,11.20
2023-03-18T01:56:04.155Z,10.95
2023-03-18T01:58:37.788Z,8.68
2023-03-18T02:01:13.114Z,13.05
2023-03-18T02:03:41.615Z,13.77
2023-03-18T02:06:11.159Z,10.05
2023-03-18T02:08:38.979Z,8.32
2023-03-18T02:11:06.847Z,9.90
2023-03-18T02:13:37.325Z,11.18
2023-03-18T02:16:09.852Z,12.20
2023-03-18T02:18:45.312Z,10.50
2023-03-18T02:21:37.538Z,9.60
2023-03-18T02:24:13.950Z,10.70
2023-03-18T02:26:55.830Z,15.98
2023-03-18T02:29:23.576Z,15.63
2023-03-18T02:31:51.130Z,8.27
2023-03-18T02:34:18.061Z,8.63
2023-03-18T02:36:44.765Z,9.75
2023-03-18T02:39:16.213Z,9.52
2023-03-18T02:41:43.825Z,11.18
2023-03-18T02:44:12.312Z,9.80
2023-03-18T02:46:50.857Z,13.90
2023-03-18T02:49:18.887Z,9.60
2023-03-18T02:51:46.640Z,8.90
2023-03-18T02:54:21.172Z,10.75
2023-03-18T02:56:48.119Z,11.00
2023-03-18T02:59:15.215Z,12.75
2023-03-18T03:01:43.737Z,10.07
2023-03-18T03:04:10.618Z,13.35
2023-03-18T03:06:37.296Z,15.27
2023-03-18T03:09:08.546Z,10.52
2023-03-18T03:11:36.392Z,12.57
2023-03-18T03:14:03.936Z,9.85
2023-03-18T03:16:31.526Z,12.90
2023-03-18T03:18:58.964Z,9.90
2023-03-18T03:21:26.741Z,12.75
2023-03-18T03:23:54.561Z,9.70
2023-03-18T03:26:21.541Z,10.15
2023-03-18T03:28:48.410Z,9.95
2023-03-18T03:31:15.553Z,9.10
2023-03-18T03:33:43.806Z,9.98
2023-03-18T03:36:16.514Z,11.77
2023-03-18T03:38:43.570Z,9.65
2023-03-18T03:41:11.751Z,10.63
2023-03-18T03:43:40.381Z,8.80
2023-03-18T03:46:09.529Z,9.18
2023-03-18T03:48:37.136Z,12.05
2023-03-18T03:51:04.187Z,10.88
2023-03-18T03:53:31.064Z,9.50
2023-03-18T03:55:59.215Z,10.48
2023-03-18T03:58:26.818Z,11.60
2023-03-18T04:00:53.494Z,12.07
2023-03-18T04:03:20.217Z,10.15
2023-03-18T04:05:47.817Z,12.23
2023-03-18T04:08:14.565Z,11.35
2023-03-18T04:10:41.261Z,14.15
2023-03-18T04:13:08.872Z,11.57
2023-03-18T04:15:35.688Z,11.60
2023-03-18T04:18:06.883Z,14.25
2023-03-18T04:20:37.731Z,16.38
2023-03-18T04:23:04.965Z,13.70
2023-03-18T04:25:31.762Z,12.90
2023-03-18T04:27:58.489Z,13.35
2023-03-18T04:30:26.457Z,14.68
2023-03-18T04:32:53.563Z,12.45
2023-03-18T04:35:21.283Z,9.85
2023-03-18T04:37:48.775Z,14.25
2023-03-18T04:40:15.659Z,14.40
2023-03-18T04:42:42.723Z,11.02
2023-03-18T04:45:09.898Z,10.25
2023-03-18T04:47:37.254Z,12.20
2023-03-18T04:50:04.701Z,14.25
2023-03-18T04:52:31.833Z,13.48
2023-03-18T04:54:58.444Z,12.63
2023-03-18T04:57:26.089Z,12.23
2023-03-18T04:59:52.772Z,12.52
2023-03-18T05:02:19.992Z,13.98
2023-03-18T05:04:46.820Z,10.23
2023-03-18T05:07:15.564Z,14.73
2023-03-18T05:09:43.683Z,10.82
2023-03-18T05:12:14.974Z,13.23
2023-03-18T05:14:45.338Z,14.98
2023-03-18T05:17:15.853Z,14.93
2023-03-18T05:19:47.018Z,9.35
2023-03-18T05:22:15.402Z,10.60
2023-03-18T05:24:48.856Z,12.25
2023-03-18T05:27:18.322Z,15.13
2023-03-18T05:29:45.470Z,19.65
2023-03-18T05:32:12.828Z,17.67
2023-03-18T05:34:40.237Z,17.70
2023-03-18T05:37:08.917Z,18.52
2023-03-18T05:39:36.175Z,16.65
2023-03-18T05:42:04.730Z,16.70
2023-03-18T05:44:31.589Z,13.05
2023-03-18T05:46:58.675Z,18.15
2023-03-18T05:49:25.595Z,20.27
2023-03-18T05:51:54.806Z,23.40
2023-03-18T05:54:22.087Z,28.08
2023-03-18T05:56:50.012Z,22.77
2023-03-18T05:59:16.695Z,18.67
2023-03-18T06:01:44.621Z,15.02
2023-03-18T06:04:11.549Z,18.23
2023-03-18T06:06:40.679Z,17.95
2023-03-18T06:09:08.977Z,18.83
2023-03-18T06:11:35.664Z,15.55
2023-03-18T06:14:03.798Z,30.58
2023-03-18T06:16:31.852Z,15.30
2023-03-18T06:18:58.598Z,25.05
2023-03-18T06:21:25.716Z,13.60
2023-03-18T06:23:52.659Z,15.45
2023-03-18T06:26:19.402Z,19.88
2023-03-18T06:28:47.023Z,13.88
2023-03-18T06:31:13.986Z,23.25
2023-03-18T06:33:41.161Z,14.60
2023-03-18T06:36:08.302Z,22.30
2023-03-18T06:38:35.006Z,15.73
2023-03-18T06:41:02.043Z,12.85
2023-03-18T06:43:30.105Z,20.67
2023-03-18T06:45:57.151Z,18.08
2023-03-18T06:48:23.800Z,24.38
2023-03-18T06:50:50.465Z,19.00
2023-03-18T06:53:17.895Z,19.77
2023-03-18T06:55:44.708Z,16.10
2023-03-18T06:58:11.440Z,40.42
2023-03-18T07:00:38.175Z,15.68
2023-03-18T07:03:05.041Z,11.80
2023-03-18T07:05:33.286Z,16.83
2023-03-18T07:08:00.049Z,13.25
2023-03-18T07:10:29.829Z,15.82
2023-03-18T07:12:57.238Z,14.35
2023-03-18T07:15:24.350Z,16.17
2023-03-18T07:17:52.569Z,16.30
2023-03-18T07:20:21.013Z,22.20
2023-03-18T07:22:47.641Z,22.42
2023-03-18T07:25:14.511Z,15.55
2023-03-18T07:27:42.435Z,18.67
2023-03-18T07:30:10.043Z,21.30
2023-03-18T07:32:38.559Z,41.10
2023-03-18T07:35:06.531Z,17.98
2023-03-18T07:37:33.599Z,12.65
2023-03-18T07:40:00.509Z,16.17
2023-03-18T07:42:27.241Z,23.65
2023-03-18T07:44:55.274Z,18.20
2023-03-18T07:47:23.758Z,20.05
2023-03-18T07:49:51.982Z,15.90
2023-03-18T07:52:19.304Z,19.10
2023-03-18T07:54:46.025Z,18.15
2023-03-18T07:57:13.175Z,26.98
2023-03-18T07:59:40.151Z,18.17
2023-03-18T08:02:08.820Z,19.02
2023-03-18T08:04:35.690Z,17.38
2023-03-18T08:07:03.253Z,16.73
2023-03-18T08:09:30.026Z,14.00
2023-03-18T08:11:56.779Z,16.85
2023-03-18T08:14:23.565Z,16.27
2023-03-18T08:16:50.335Z,18.35
2023-03-18T08:19:17.316Z,19.40
2023-03-18T08:21:44.217Z,22.38
2023-03-18T08:24:11.244Z,25.52
2023-03-18T08:26:38.066Z,24.10
2023-03-18T08:29:04.737Z,18.17
2023-03-18T08:31:31.563Z,15.27
2023-03-18T08:33:59.545Z,15.93
2023-03-18T08:36:27.322Z,23.73
2023-03-18T08:38:54.082Z,26.02
2023-03-18T08:41:21.724Z,21.65
2023-03-18T08:43:48.426Z,16.80
2023-03-18T08:46:15.392Z,20.38
2023-03-18T08:48:42.261Z,22.58
2023-03-18T08:51:09.357Z,19.98
2023-03-18T08:53:36.757Z,21.23
2023-03-18T08:56:05.921Z,19.05
2023-03-18T08:58:32.667Z,22.27
2023-03-18T09:00:59.634Z,17.65
2023-03-18T09:03:26.460Z,18.13
2023-03-18T09:05:53.892Z,24.17
2023-03-18T09:08:22.092Z,16.35
2023-03-18T09:10:53.531Z,26.55
2023-03-18T09:13:21.194Z,20.75
2023-03-18T09:15:47.957Z,23.45
2023-03-18T09:18:16.473Z,22.85
2023-03-18T09:20:43.340Z,28.65
2023-03-18T09:23:11.821Z,26.58
2023-03-18T09:25:39.432Z,21.30
2023-03-18T09:28:06.538Z,17.38
2023-03-18T09:30:33.906Z,20.42
2023-03-18T09:33:02.469Z,16.98
2023-03-18T09:35:29.241Z,19.65
2023-03-18T09:37:56.485Z,16.05
2023-03-18T09:40:30.674Z,21.83
2023-03-18T09:43:32.917Z,26.15
2023-03-18T09:46:03.171Z,24.35
2023-03-18T09:48:40.334Z,17.00
2023-03-18T09:51:19.108Z,23.80
2023-03-18T09:53:48.509Z,21.63
2023-03-18T09:56:26.911Z,18.45
2023-03-18T09:58:58.491Z,18.30
2023-03-18T10:01:27.649Z,21.50
2023-03-18T10:04:01.090Z,18.33
2023-03-18T10:06:28.066Z,16.25
2023-03-18T10:09:00.477Z,14.43
2023-03-18T10:11:41.542Z,15.02
2023-03-18T10:14:26.586Z,18.80
2023-03-18T10:17:19.392Z,13.73
2023-03-18T10:19:58.124Z,15.65
2023-03-18T10:22:49.639Z,17.08
2023-03-18T10:25:27.247Z,20.40
2023-03-18T10:28:06.223Z,19.83
2023-03-18T10:30:37.015Z,15.77
2023-03-18T10:33:22.111Z,16.90
2023-03-18T10:35:53.495Z,16.42
2023-03-18T10:38:39.733Z,20.85
2023-03-18T10:41:24.923Z,16.63
2023-03-18T10:43:53.589Z,12.07
2023-03-18T10:46:22.733Z,13.38
2023-03-18T10:49:00.484Z,15.73
2023-03-18T10:51:32.793Z,12.90
2023-03-18T10:54:18.340Z,15.43
2023-03-18T10:56:45.096Z,29.45
2023-03-18T10:59:15.459Z,19.60
2023-03-18T11:01:45.828Z,18.20
2023-03-18T11:04:21.672Z,17.38
2023-03-18T11:06:51.398Z,13.98
2023-03-18T11:09:20.485Z,18.23
2023-03-18T11:11:51.073Z,28.23
2023-03-18T11:14:23.046Z,22.52
2023-03-18T11:16:50.980Z,15.30
2023-03-18T11:19:29.360Z,19.83
2023-03-18T11:22:05.802Z,21.27
2023-03-18T11:24:36.519Z,11.98
2023-03-18T11:27:04.356Z,18.45
2023-03-18T11:29:34.110Z,19.50
2023-03-18T11:32:01.678Z,20.27
2023-03-18T11:34:30.495Z,14.32
2023-03-18T11:37:04.845Z,17.90
2023-03-18T11:39:36.736Z,16.83
2023-03-18T11:42:16.738Z,23.30
2023-03-18T11:44:43.378Z,14.38
2023-03-18T11:47:18.676Z,16.90
2023-03-18T11:49:46.086Z,15.40
2023-03-18T11:52:39.786Z,19.30
2023-03-18T11:55:18.856Z,15.40
2023-03-18T11:58:06.585Z,14.57
2023-03-18T12:00:53.852Z,15.05
2023-03-18T12:03:56.629Z,14.38
2023-03-18T12:06:28.648Z,12.40
2023-03-18T12:09:04.836Z,13.77
2023-03-18T12:12:07.057Z,18.35
2023-03-18T12:14:46.050Z,17.60
2023-03-18T12:17:37.782Z,14.18
2023-03-18T12:20:32.732Z,19.20
2023-03-18T12:23:13.737Z,14.23
2023-03-18T12:25:46.558Z,15.90
2023-03-18T12:28:28.446Z,14.18
2023-03-18T12:31:04.574Z,20.05
2023-03-18T12:33:55.226Z,16.75
2023-03-18T12:36:54.312Z,17.95
2023-03-18T12:39:52.364Z,16.95
2023-03-18T12:42:44.730Z,19.92
2023-03-18T12:45:19.404Z,17.02
2023-03-18T12:47:49.276Z,18.20
2023-03-18T12:50:28.403Z,24.27
2023-03-18T12:53:02.663Z,20.38
2023-03-18T12:55:33.239Z,18.45
2023-03-18T12:58:03.991Z,18.58
2023-03-18T13:00:39.005Z,18.33
2023-03-18T13:03:27.590Z,16.60
2023-03-18T13:06:18.818Z,19.27
2023-03-18T13:09:34.735Z,17.45
2023-03-18T13:12:12.622Z,20.20
2023-03-18T13:14:39.571Z,19.73
2023-03-18T13:17:12.197Z,19.65
2023-03-18T13:19:41.437Z,16.17
2023-03-18T13:22:42.037Z,19.48
2023-03-18T13:25:34.788Z,21.67
2023-03-18T13:28:25.623Z,25.42
2023-03-18T13:31:04.683Z,32.08
2023-03-18T13:33:39.686Z,27.85
2023-03-18T13:36:25.095Z,25.35
2023-03-18T13:39:04.790Z,25.20
2023-03-18T13:41:44.596Z,24.30
2023-03-18T13:44:17.410Z,27.33
2023-03-18T13:46:54.115Z,25.95
2023-03-18T13:49:23.023Z,21.95
2023-03-18T13:51:52.409Z,25.67
2023-03-18T13:56:55.726Z,25.02
2023-03-18T13:59:48.858Z,24.10
2023-03-18T14:03:02.937Z,25.15
2023-03-18T14:05:32.385Z,28.42
2023-03-18T14:08:03.461Z,27.40
2023-03-18T14:10:30.431Z,28.48
2023-03-18T14:12:58.938Z,27.02
2023-03-18T14:15:39.153Z,27.13
2023-03-18T14:18:19.414Z,30.17
2023-03-18T14:20:46.300Z,25.85
2023-03-18T14:23:24.291Z,28.20
2023-03-18T14:26:02.084Z,26.98
2023-03-18T14:28:30.120Z,25.63
2023-03-18T14:31:15.053Z,24.75
2023-03-18T14:33:53.491Z,27.83
2023-03-18T14:36:29.467Z,27.33
2023-03-18T14:39:07.544Z,27.35
2023-03-18T14:41:38.190Z,25.42
2023-03-18T14:44:26.733Z,31.15
2023-03-18T14:47:00.812Z,27.50
2023-03-18T14:49:46.161Z,29.98
2023-03-18T14:52:33.418Z,31.35
2023-03-18T14:55:05.495Z,26.08
2023-03-18T14:57:32.282Z,24.63
2023-03-18T15:00:00.140Z,27.30
2023-03-18T15:02:30.654Z,35.50
2023-03-18T15:04:59.490Z,34.30
2023-03-18T15:07:37.399Z,32.55
2023-03-18T15:10:10.465Z,29.10
2023-03-18T15:12:37.422Z,32.53
2023-03-18T15:15:07.095Z,32.65
2023-03-18T15:17:33.884Z,30.52
2023-03-18T15:20:01.196Z,32.70
2023-03-18T15:22:30.819Z,31.25
2023-03-18T15:25:05.947Z,33.33
2023-03-18T15:27:34.546Z,32.30
2023-03-18T15:30:05.347Z,44.30
2023-03-18T15:32:53.433Z,34.55
2023-03-18T15:35:28.743Z,35.75
2023-03-18T15:38:16.534Z,36.60
2023-03-18T15:40:55.132Z,30.08
2023-03-18T15:43:28.364Z,34.80
2023-03-18T15:45:58.758Z,35.58
2023-03-18T15:48:35.009Z,38.00
2023-03-18T15:51:09.940Z,36.83
2023-03-18T15:53:44.514Z,36.95
2023-03-18T15:56:18.059Z,38.10
2023-03-18T15:58:47.500Z,38.08
2023-03-18T16:03:43.992Z,35.58
2023-03-18T16:06:13.810Z,40.83
2023-03-18T16:08:40.486Z,39.53
2023-03-18T16:11:10.329Z,37.70
2023-03-18T16:13:37.336Z,42.28
2023-03-18T16:16:04.130Z,36.10
2023-03-18T16:18:32.650Z,34.10
2023-03-18T16:21:00.605Z,37.20
2023-03-18T16:23:27.330Z,40.97
2023-03-18T16:25:55.543Z,40.97
2023-03-18T16:28:28.172Z,37.15
2023-03-18T16:30:58.175Z,32.60
2023-03-18T16:33:26.205Z,34.45
2023-03-18T16:35:58.699Z,39.42
2023-03-18T16:38:26.678Z,39.25
2023-03-18T16:40:54.922Z,35.13
2023-03-18T16:43:31.888Z,39.60
2023-03-18T16:46:04.223Z,35.42
2023-03-18T16:48:31.306Z,36.05
2023-03-18T16:51:00.446Z,40.15
2023-03-18T16:53:30.532Z,41.55
2023-03-18T16:56:11.994Z,33.28
2023-03-18T16:58:38.835Z,37.65
2023-03-18T17:01:08.350Z,37.65
2023-03-18T17:03:35.838Z,31.08
2023-03-18T17:06:02.659Z,35.35
2023-03-18T17:08:29.301Z,39.47
2023-03-18T17:10:57.585Z,33.10
2023-03-18T17:13:26.205Z,37.13
2023-03-18T17:15:53.329Z,44.30
2023-03-18T17:18:22.483Z,42.90
2023-03-18T17:20:50.257Z,42.53
2023-03-18T17:23:25.385Z,38.13
2023-03-18T17:25:53.908Z,38.53
2023-03-18T17:28:44.207Z,35.63
2023-03-18T17:31:12.108Z,41.85
2023-03-18T17:33:39.126Z,36.35
2023-03-18T17:36:07.370Z,37.20
2023-03-18T17:38:35.288Z,39.53
2023-03-18T17:41:04.093Z,46.30
2023-03-18T17:43:35.789Z,37.88
2023-03-18T17:46:03.798Z,34.08
2023-03-18T17:48:32.719Z,40.00
2023-03-18T17:51:04.077Z,36.90
2023-03-18T17:53:46.214Z,39.90
2023-03-18T17:56:14.927Z,41.30
2023-03-18T17:58:50.566Z,37.05
2023-03-18T18:01:23.309Z,37.83
2023-03-18T18:03:50.289Z,35.67
2023-03-18T18:06:22.743Z,32.00
2023-03-18T18:08:50.168Z,49.70
2023-03-18T18:11:34.336Z,39.40
2023-03-18T18:14:19.256Z,35.33
2023-03-18T18:16:47.348Z,43.58
2023-03-18T18:19:16.555Z,39.25
2023-03-18T18:21:44.350Z,43.65
2023-03-18T18:24:23.680Z,42.85
2023-03-18T18:26:51.170Z,40.47
2023-03-18T18:29:22.255Z,41.85
2023-03-18T18:31:49.155Z,44.45
2023-03-18T18:34:17.010Z,46.50
2023-03-18T18:36:45.171Z,41.53
2023-03-18T18:39:12.149Z,49.65
2023-03-18T18:41:38.891Z,50.75
2023-03-18T18:44:06.259Z,43.35
2023-03-18T18:46:34.236Z,45.60
2023-03-18T18:49:01.333Z,50.95
2023-03-18T18:51:28.244Z,59.60
2023-03-18T18:53:55.150Z,47.85
2023-03-18T18:56:32.747Z,42.60
2023-03-18T18:59:00.636Z,46.90
2023-03-18T19:01:27.690Z,54.60
2023-03-18T19:03:55.726Z,56.90
2023-03-18T19:06:31.327Z,52.63
2023-03-18T19:11:28.883Z,48.70
2023-03-18T19:14:14.782Z,55.80
2023-03-18T19:16:41.938Z,56.55
2023-03-18T19:19:13.564Z,52.10
2023-03-18T19:21:40.221Z,55.30
2023-03-18T19:24:23.804Z,61.88
2023-03-18T19:26:51.052Z,60.30
2023-03-18T19:29:18.012Z,53.70
2023-03-18T19:31:44.864Z,52.38
2023-03-18T19:34:21.620Z,66.00
2023-03-18T19:36:49.533Z,60.45
2023-03-18T19:39:18.298Z,59.95
2023-03-18T19:41:47.102Z,58.28
2023-03-18T19:44:17.654Z,63.55
2023-03-18T19:46:46.684Z,54.00
2023-03-18T19:49:25.076Z,59.60
2023-03-18T19:51:52.234Z,63.47
2023-03-18T19:54:33.436Z,62.25
2023-03-18T19:57:05.742Z,57.17
2023-03-18T19:59:38.750Z,59.15
2023-03-18T20:02:34.015Z,58.10
2023-03-18T20:05:03.766Z,63.45
2023-03-18T20:07:33.063Z,62.72
2023-03-18T20:09:59.817Z,59.25
2023-03-18T20:12:39.778Z,61.65
2023-03-18T20:15:11.147Z,67.93
2023-03-18T20:17:45.648Z,65.43
2023-03-18T20:20:17.288Z,67.50
2023-03-18T20:22:52.473Z,68.53
2023-03-18T20:25:33.034Z,77.07
2023-03-18T20:28:01.008Z,75.30
2023-03-18T20:30:36.095Z,73.53
2023-03-18T20:33:04.471Z,73.63
2023-03-18T20:35:38.783Z,70.32
2023-03-18T20:38:37.518Z,71.57
2023-03-18T20:41:06.249Z,76.50
2023-03-18T20:43:33.150Z,60.42
2023-03-18T20:46:01.280Z,72.40
2023-03-18T20:48:28.344Z,75.22
2023-03-18T20:50:55.397Z,77.40
2023-03-18T20:53:27.399Z,78.95
2023-03-18T20:55:54.378Z,71.60
2023-03-18T20:58:23.236Z,73.95
2023-03-18T21:00:50.830Z,77.97
2023-03-18T21:03:25.790Z,80.88
2023-03-18T21:05:53.540Z,73.05
2023-03-18T21:08:20.350Z,66.80
2023-03-18T21:10:47.103Z,74.18
2023-03-18T21:13:30.478Z,73.18
2023-03-18T21:15:58.075Z,69.72
2023-03-18T21:18:26.120Z,72.60
2023-03-18T21:20:53.792Z,74.47
2023-03-18T21:23:32.266Z,68.30
2023-03-18T21:25:59.247Z,69.28
2023-03-18T21:28:28.817Z,68.15
2023-03-18T21:30:58.301Z,66.53
2023-03-18T21:33:31.533Z,74.13
2023-03-18T21:35:58.935Z,63.63
2023-03-18T21:38:27.119Z,73.65
2023-03-18T21:40:54.382Z,73.60
2023-03-18T21:43:29.778Z,66.65
2023-03-18T21:45:56.731Z,67.88
2023-03-18T21:48:23.566Z,72.82
2023-03-18T21:50:50.448Z,65.15
2023-03-18T21:53:19.148Z,66.20
2023-03-18T21:55:46.375Z,70.07
2023-03-18T21:58:17.612Z,62.97
2023-03-18T22:00:45.774Z,69.15
2023-03-18T22:03:14.666Z,70.75
2023-03-18T22:05:41.972Z,73.75
2023-03-18T22:08:09.087Z,69.88
2023-03-18T22:10:36.065Z,74.60
2023-03-18T22:13:21.239Z,64.20
2023-03-18T22:15:49.624Z,72.10
2023-03-18T22:18:16.773Z,67.13
2023-03-18T22:20:45.128Z,69.78
2023-03-18T22:23:23.838Z,70.15
2023-03-18T22:25:55.330Z,70.15
2023-03-18T22:28:23.123Z,73.93
2023-03-18T22:30:57.736Z,75.55
2023-03-18T22:33:26.260Z,68.72
2023-03-18T22:35:53.674Z,68.93
2023-03-18T22:38:21.861Z,70.35
2023-03-18T22:40:51.891Z,67.38
2023-03-18T22:43:33.716Z,67.68
2023-03-18T22:46:06.097Z,67.53
2023-03-18T22:48:33.551Z,70.25
2023-03-18T22:51:00.754Z,68.25
2023-03-18T22:53:30.619Z,65.72
2023-03-18T22:55:57.311Z,64.80
2023-03-18T22:58:26.421Z,68.78
2023-03-18T23:00:54.441Z,65.00
2023-03-18T23:03:28.828Z,68.40
2023-03-18T23:05:57.446Z,66.63
2023-03-18T23:08:24.616Z,65.18
2023-03-18T23:10:52.739Z,69.50
2023-03-18T23:13:28.506Z,67.00
2023-03-18T23:15:55.473Z,71.72
2023-03-18T23:18:23.718Z,70.80
2023-03-18T23:20:51.469Z,65.40
2023-03-18T23:23:18.516Z,61.33
2023-03-18T23:25:45.781Z,74.82
2023-03-18T23:28:13.371Z,61.83
2023-03-18T23:30:41.796Z,60.40
2023-03-18T23:33:08.992Z,63.17
2023-03-18T23:35:37.348Z,65.22
2023-03-18T23:38:05.790Z,60.03
2023-03-18T23:40:33.266Z,58.80
2023-03-18T23:43:00.124Z,57.70
2023-03-18T23:45:28.102Z,57.30
2023-03-18T23:47:55.976Z,62.08
2023-03-18T23:50:23.391Z,53.38
2023-03-18T23:52:50.413Z,63.75
2023-03-18T23:55:33.009Z,57.97
2023-03-18T23:58:00.551Z,60.67
